Terminal Aerodrome Forecast
Issued by NWS Paducah, KY

Home | Current Version | Previous Version | Text Only | Print | Product List | Glossary Off
Versions: 1 2 3 4 5 6 7 8 9 10 11 12 13 14 15 16 17

229
FTUS43 KPAH 250958 AAA
TAFEVV
TAF AMD
KEVV 250958Z 2510/2606 15006KT P6SM SCT040 BKN120 WS020/19040KT
      TEMPO 2510/2512 3SM SHRA BR BKN035
     FM251200 16010KT P6SM BKN035 WS020/19040KT
     FM251500 17013G21KT P6SM -SHRA BKN035
     FM251700 17013G21KT P6SM -SHRA BKN040
     FM260300 15006KT P6SM BKN050=

USA.gov is the U.S. government's official web portal to all federal, state and local government web resources and services.